createdAt,value
2023-04-15T00:01:00.372Z,2.03
2023-04-15T00:03:31.433Z,1.94
2023-04-15T00:06:04.480Z,1.88
2023-04-15T00:08:34.875Z,1.88
2023-04-15T00:11:06.099Z,1.91
2023-04-15T00:13:36.816Z,2.01
2023-04-15T00:16:07.659Z,1.95
2023-04-15T00:18:38.007Z,1.81
2023-04-15T00:21:11.032Z,1.71
2023-04-15T00:23:41.315Z,1.66
2023-04-15T00:26:11.524Z,1.60
2023-04-15T00:28:42.766Z,1.63
2023-04-15T00:31:13.046Z,1.78
2023-04-15T00:33:43.870Z,1.73
2023-04-15T00:36:16.795Z,1.65
2023-04-15T00:38:47.390Z,1.63
2023-04-15T00:41:18.082Z,1.60
2023-04-15T00:43:48.326Z,1.63
2023-04-15T00:46:20.765Z,1.60
2023-04-15T00:48:51.409Z,1.53
2023-04-15T00:51:24.714Z,1.48
2023-04-15T00:53:55.026Z,1.51
2023-04-15T00:56:26.167Z,1.46
2023-04-15T00:58:57.825Z,1.42
2023-04-15T01:01:29.019Z,1.47
2023-04-15T01:04:00.598Z,1.44
2023-04-15T01:06:33.754Z,1.40
2023-04-15T01:09:04.177Z,1.21
2023-04-15T01:11:36.017Z,1.19
2023-04-15T01:14:07.506Z,1.28
2023-04-15T01:16:40.018Z,1.46
2023-04-15T01:19:12.217Z,1.46
2023-04-15T01:21:45.286Z,1.27
2023-04-15T01:24:18.544Z,1.21
2023-04-15T01:26:51.184Z,1.30
2023-04-15T01:29:21.382Z,1.41
2023-04-15T01:31:55.174Z,1.41
2023-04-15T01:34:25.954Z,1.25
2023-04-15T01:36:57.218Z,1.19
2023-04-15T01:39:27.129Z,1.16
2023-04-15T01:42:02.548Z,1.11
2023-04-15T01:44:32.408Z,1.08
2023-04-15T01:47:02.417Z,1.02
2023-04-15T01:49:32.359Z,0.91
2023-04-15T01:52:03.745Z,0.79
2023-04-15T01:54:33.648Z,0.78
2023-04-15T01:57:06.466Z,0.81
2023-04-15T01:59:36.535Z,0.81
2023-04-15T02:02:06.784Z,0.77
2023-04-15T02:04:36.739Z,0.69
2023-04-15T02:07:07.293Z,0.63
2023-04-15T02:09:38.844Z,0.60
2023-04-15T02:12:13.730Z,0.55
2023-04-15T02:14:43.606Z,0.48
2023-04-15T02:17:13.471Z,0.47
2023-04-15T02:19:45.370Z,0.43
2023-04-15T02:22:18.989Z,0.39
2023-04-15T02:24:49.736Z,0.33
2023-04-15T02:27:22.741Z,0.43
2023-04-15T02:29:53.696Z,0.41
2023-04-15T02:32:24.635Z,0.42
2023-04-15T02:34:54.614Z,0.44
2023-04-15T02:37:27.341Z,0.48
2023-04-15T02:39:58.719Z,0.45
2023-04-15T02:42:32.058Z,0.36
2023-04-15T02:45:03.929Z,0.36
2023-04-15T02:47:37.197Z,0.32
2023-04-15T02:50:12.797Z,0.13
2023-04-15T02:52:44.845Z,0.09
2023-04-15T02:55:14.874Z,0.08
2023-04-15T02:57:47.384Z,0.21
2023-04-15T03:00:17.709Z,0.24
2023-04-15T03:02:52.544Z,0.30
2023-04-15T03:05:24.722Z,0.33
2023-04-15T03:07:55.065Z,0.29
2023-04-15T03:10:25.674Z,0.27
2023-04-15T03:12:58.155Z,0.39
2023-04-15T03:15:28.684Z,0.38
2023-04-15T03:17:58.651Z,0.42
2023-04-15T03:20:28.648Z,0.42
2023-04-15T03:22:58.672Z,0.47
2023-04-15T03:25:28.998Z,0.51
2023-04-15T03:28:02.992Z,0.56
2023-04-15T03:30:32.934Z,0.62
2023-04-15T03:33:03.087Z,0.52
2023-04-15T03:35:33.111Z,0.48
2023-04-15T03:38:03.054Z,0.50
2023-04-15T03:40:33.260Z,0.54
2023-04-15T03:43:05.849Z,0.57
2023-04-15T03:45:35.976Z,0.59
2023-04-15T03:48:16.449Z,0.60
2023-04-15T03:50:48.480Z,0.57
2023-04-15T03:53:18.685Z,0.55
2023-04-15T03:55:48.506Z,0.43
2023-04-15T03:58:20.990Z,0.48
2023-04-15T04:00:50.896Z,0.46
2023-04-15T04:03:21.489Z,0.36
2023-04-15T04:05:51.661Z,0.37
2023-04-15T04:08:22.244Z,0.36
2023-04-15T04:10:52.074Z,0.29
2023-04-15T04:13:24.620Z,0.27
2023-04-15T04:15:54.522Z,0.23
2023-04-15T04:18:24.779Z,0.23
2023-04-15T04:20:54.724Z,0.14
2023-04-15T04:23:24.666Z,0.09
2023-04-15T04:25:54.753Z,0.03
2023-04-15T04:28:27.214Z,-0.03
2023-04-15T04:30:57.168Z,-0.08
2023-04-15T04:33:27.392Z,-0.16
2023-04-15T04:35:57.246Z,-0.10
2023-04-15T04:38:27.132Z,-0.12
2023-04-15T04:40:57.039Z,-0.13
2023-04-15T04:43:29.876Z,-0.16
2023-04-15T04:45:59.963Z,-0.14
2023-04-15T04:48:29.835Z,-0.07
2023-04-15T04:50:59.911Z,-0.05
2023-04-15T04:53:30.319Z,0.15
2023-04-15T04:56:00.257Z,0.40
2023-04-15T04:58:32.737Z,0.41
2023-04-15T05:01:03.458Z,0.43
2023-04-15T05:03:34.308Z,0.45
2023-04-15T05:06:06.700Z,0.38
2023-04-15T05:08:37.326Z,0.49
2023-04-15T05:11:09.192Z,0.48
2023-04-15T05:13:41.683Z,0.57
2023-04-15T05:16:11.878Z,0.68
2023-04-15T05:18:41.914Z,0.58
2023-04-15T05:21:12.164Z,0.60
2023-04-15T05:23:42.567Z,0.62
2023-04-15T05:26:12.458Z,0.69
2023-04-15T05:28:44.960Z,0.78
2023-04-15T05:31:14.923Z,0.83
2023-04-15T05:33:44.947Z,0.95
2023-04-15T05:36:14.966Z,1.03
2023-04-15T05:38:44.956Z,1.10
2023-04-15T05:41:17.784Z,1.23
2023-04-15T05:43:52.234Z,1.50
2023-04-15T05:46:22.818Z,1.88
2023-04-15T05:48:54.700Z,2.29
2023-04-15T05:51:26.017Z,2.61
2023-04-15T05:53:56.679Z,2.96
2023-04-15T05:56:27.277Z,3.57
2023-04-15T05:59:00.046Z,4.11
2023-04-15T06:01:30.632Z,4.58
2023-04-15T06:04:00.710Z,5.38
2023-04-15T06:06:34.850Z,6.09
2023-04-15T06:09:04.786Z,7.04
2023-04-15T06:11:34.781Z,7.87
2023-04-15T06:14:07.366Z,8.76
2023-04-15T06:16:37.850Z,9.13
2023-04-15T06:19:07.946Z,9.54
2023-04-15T06:21:37.839Z,10.76
2023-04-15T06:24:08.268Z,11.20
2023-04-15T06:26:38.209Z,10.71
2023-04-15T06:29:10.789Z,10.71
2023-04-15T06:31:40.783Z,10.83
2023-04-15T06:34:11.352Z,11.06
2023-04-15T06:36:41.309Z,11.55
2023-04-15T06:39:11.201Z,11.69
2023-04-15T06:41:41.126Z,12.00
2023-04-15T06:44:13.794Z,12.52
2023-04-15T06:46:43.667Z,12.44
2023-04-15T06:49:13.905Z,12.41
2023-04-15T06:51:45.629Z,12.62
2023-04-15T06:54:15.601Z,12.56
2023-04-15T06:56:45.780Z,12.21
2023-04-15T06:59:18.376Z,12.01
2023-04-15T07:01:48.297Z,11.50
2023-04-15T07:04:18.266Z,11.22
2023-04-15T07:06:48.177Z,10.99
2023-04-15T07:09:18.351Z,10.71
2023-04-15T07:11:48.948Z,10.42
2023-04-15T07:14:21.716Z,10.34
2023-04-15T07:16:51.664Z,9.95
2023-04-15T07:19:21.984Z,9.26
2023-04-15T07:21:52.613Z,8.92
2023-04-15T07:24:23.460Z,8.80
2023-04-15T07:26:53.331Z,8.93
2023-04-15T07:29:25.839Z,8.92
2023-04-15T07:31:57.335Z,9.07
2023-04-15T07:34:27.759Z,9.24
2023-04-15T07:36:58.167Z,9.79
2023-04-15T07:39:29.618Z,10.74
2023-04-15T07:41:59.764Z,11.50
2023-04-15T07:44:32.587Z,12.13
2023-04-15T07:47:02.449Z,12.60
2023-04-15T07:49:32.498Z,12.97
2023-04-15T07:52:02.497Z,13.84
2023-04-15T07:54:32.424Z,14.19
2023-04-15T07:57:03.320Z,14.96
2023-04-15T07:59:36.041Z,15.88
2023-04-15T08:02:06.613Z,16.50
2023-04-15T08:04:36.760Z,16.82
2023-04-15T08:07:07.290Z,16.36
2023-04-15T08:09:37.182Z,16.24
2023-04-15T08:12:09.777Z,16.56
2023-04-15T08:14:42.651Z,17.65
2023-04-15T08:17:12.894Z,19.43
2023-04-15T08:19:46.300Z,19.90
2023-04-15T08:22:18.442Z,19.84
2023-04-15T08:24:49.549Z,20.41
2023-04-15T08:27:19.953Z,20.65
2023-04-15T08:29:52.765Z,20.86
2023-04-15T08:32:23.069Z,21.79
2023-04-15T08:34:53.491Z,22.58
2023-04-15T08:37:23.781Z,23.02
2023-04-15T08:39:54.245Z,23.78
2023-04-15T08:42:26.822Z,23.57
2023-04-15T08:45:00.971Z,23.34
2023-04-15T08:47:33.123Z,24.20
2023-04-15T08:50:06.401Z,24.19
2023-04-15T08:52:36.672Z,23.75
2023-04-15T08:55:07.325Z,23.75
2023-04-15T08:57:40.000Z,22.62
2023-04-15T09:00:14.263Z,23.13
2023-04-15T09:02:44.710Z,24.27
2023-04-15T09:05:14.729Z,25.28
2023-04-15T09:07:44.714Z,26.28
2023-04-15T09:10:15.564Z,27.55
2023-04-15T09:12:45.487Z,27.34
2023-04-15T09:15:19.132Z,25.74
2023-04-15T09:17:49.447Z,26.33
2023-04-15T09:20:21.516Z,27.07
2023-04-15T09:22:52.747Z,25.69
2023-04-15T09:25:32.195Z,24.84
2023-04-15T09:28:04.836Z,23.71
2023-04-15T09:30:37.970Z,22.65
2023-04-15T09:33:09.010Z,20.01
2023-04-15T09:35:39.288Z,19.69
2023-04-15T09:38:10.920Z,20.48
2023-04-15T09:40:44.022Z,21.68
2023-04-15T09:43:14.705Z,22.01
2023-04-15T09:45:51.897Z,20.57
2023-04-15T09:48:24.733Z,19.58
2023-04-15T09:50:54.984Z,18.83
2023-04-15T09:53:27.555Z,18.06
2023-04-15T09:56:00.956Z,17.90
2023-04-15T09:58:33.677Z,18.45
2023-04-15T10:01:09.469Z,19.03
2023-04-15T10:03:39.703Z,18.42
2023-04-15T10:06:10.161Z,19.68
2023-04-15T10:08:40.212Z,19.75
2023-04-15T10:11:10.796Z,19.49
2023-04-15T10:13:41.559Z,18.43
2023-04-15T10:16:17.132Z,17.16
2023-04-15T10:18:49.003Z,16.84
2023-04-15T10:21:19.507Z,15.81
2023-04-15T10:23:50.221Z,15.93
2023-04-15T10:26:20.568Z,16.34
2023-04-15T10:28:50.619Z,17.33
2023-04-15T10:31:23.693Z,19.03
2023-04-15T10:33:55.164Z,19.09
2023-04-15T10:36:25.529Z,18.43
2023-04-15T10:38:55.394Z,17.56
2023-04-15T10:41:31.391Z,18.01
2023-04-15T10:44:04.993Z,18.56
2023-04-15T10:46:42.731Z,18.13
2023-04-15T10:49:14.950Z,17.71
2023-04-15T10:51:46.373Z,18.39
2023-04-15T10:54:19.118Z,17.59
2023-04-15T10:56:54.285Z,18.17
2023-04-15T10:59:24.935Z,17.77
2023-04-15T11:02:00.439Z,18.17
2023-04-15T11:04:54.838Z,17.84
2023-04-15T11:07:43.721Z,17.10
2023-04-15T11:10:55.807Z,16.42
2023-04-15T11:13:31.827Z,16.70
2023-04-15T11:16:03.913Z,16.34
2023-04-15T11:18:37.247Z,16.28
2023-04-15T11:21:09.632Z,16.88
2023-04-15T11:23:44.381Z,16.58
2023-04-15T11:26:15.019Z,16.36
2023-04-15T11:28:47.882Z,16.12
2023-04-15T11:31:20.292Z,16.52
2023-04-15T11:33:58.315Z,16.78
2023-04-15T11:36:30.293Z,16.66
2023-04-15T11:39:01.459Z,16.65
2023-04-15T11:41:31.422Z,16.26
2023-04-15T11:44:01.523Z,17.21
2023-04-15T11:46:33.424Z,18.09
2023-04-15T11:49:06.042Z,17.37
2023-04-15T11:51:37.199Z,18.12
2023-04-15T11:54:07.483Z,18.11
2023-04-15T11:56:37.579Z,17.62
2023-04-15T11:59:07.633Z,17.03
2023-04-15T12:01:39.569Z,15.79
2023-04-15T12:04:17.849Z,15.04
2023-04-15T12:06:49.045Z,14.29
2023-04-15T12:09:20.504Z,13.34
2023-04-15T12:11:53.065Z,11.40
2023-04-15T12:14:28.444Z,10.88
2023-04-15T12:17:02.210Z,11.02
2023-04-15T12:19:38.974Z,11.48
2023-04-15T12:22:12.039Z,12.10
2023-04-15T12:24:44.033Z,12.33
2023-04-15T12:27:15.137Z,12.47
2023-04-15T12:29:45.964Z,12.20
2023-04-15T12:32:17.349Z,12.58
2023-04-15T12:34:54.576Z,12.50
2023-04-15T12:37:26.236Z,12.26
2023-04-15T12:39:56.735Z,12.24
2023-04-15T12:42:26.573Z,11.15
2023-04-15T12:44:57.054Z,9.95
2023-04-15T12:47:26.964Z,9.12
2023-04-15T12:49:59.462Z,8.56
2023-04-15T12:52:29.314Z,8.06
2023-04-15T12:54:59.214Z,7.92
2023-04-15T12:57:29.189Z,7.86
2023-04-15T12:59:59.102Z,7.79
2023-04-15T13:02:29.607Z,7.73
2023-04-15T13:05:02.300Z,7.76
2023-04-15T13:07:32.171Z,7.96
2023-04-15T13:10:02.033Z,8.25
2023-04-15T13:12:33.134Z,8.50
2023-04-15T13:15:05.468Z,8.70
2023-04-15T13:17:35.594Z,8.99
2023-04-15T13:20:09.065Z,9.06
2023-04-15T13:22:38.964Z,9.08
2023-04-15T13:25:10.557Z,9.65
2023-04-15T13:27:40.675Z,9.79
2023-04-15T13:30:12.130Z,10.00
2023-04-15T13:32:42.088Z,10.10
2023-04-15T13:35:14.936Z,10.33
2023-04-15T13:37:45.037Z,10.77
2023-04-15T13:40:15.061Z,11.45
2023-04-15T13:42:45.162Z,12.10
2023-04-15T13:45:15.086Z,12.44
2023-04-15T13:47:45.060Z,12.14
2023-04-15T13:50:17.532Z,12.12
2023-04-15T13:52:47.750Z,12.01
2023-04-15T13:55:20.286Z,12.27
2023-04-15T13:57:51.012Z,12.17
2023-04-15T14:00:21.369Z,12.19
2023-04-15T14:02:52.133Z,11.89
2023-04-15T14:05:25.062Z,11.89
2023-04-15T14:07:55.460Z,11.79
2023-04-15T14:10:25.765Z,11.93
2023-04-15T14:12:56.212Z,11.89
2023-04-15T14:15:26.483Z,11.89
2023-04-15T14:17:56.753Z,11.57
2023-04-15T14:20:29.628Z,11.46
2023-04-15T14:22:59.871Z,11.57
2023-04-15T14:25:33.845Z,11.55
2023-04-15T14:28:04.567Z,11.77
2023-04-15T14:30:35.223Z,11.87
2023-04-15T14:33:05.601Z,11.76
2023-04-15T14:35:38.554Z,11.87
2023-04-15T14:38:11.510Z,11.67
2023-04-15T14:40:42.039Z,11.66
2023-04-15T14:43:12.315Z,11.96
2023-04-15T14:45:44.576Z,11.88
2023-04-15T14:48:15.767Z,11.89
2023-04-15T14:50:48.745Z,11.70
2023-04-15T14:53:18.980Z,11.80
2023-04-15T14:55:49.242Z,11.72
2023-04-15T14:58:19.514Z,11.25
2023-04-15T15:00:49.764Z,11.15
2023-04-15T15:03:20.104Z,11.30
2023-04-15T15:05:53.062Z,11.11
2023-04-15T15:08:23.565Z,10.95
2023-04-15T15:10:54.404Z,10.99
2023-04-15T15:13:25.524Z,10.71
2023-04-15T15:15:56.033Z,10.79
2023-04-15T15:18:26.352Z,10.46
2023-04-15T15:20:59.244Z,10.28
2023-04-15T15:23:29.502Z,10.25
2023-04-15T15:26:01.543Z,10.11
2023-04-15T15:28:31.950Z,9.98
2023-04-15T15:31:02.174Z,9.72
2023-04-15T15:33:32.966Z,9.50
2023-04-15T15:36:06.062Z,9.16
2023-04-15T15:38:36.370Z,9.02
2023-04-15T15:41:06.956Z,8.92
2023-04-15T15:43:37.160Z,8.90
2023-04-15T15:46:07.563Z,8.97
2023-04-15T15:48:38.087Z,8.92
2023-04-15T15:51:11.051Z,8.77
2023-04-15T15:53:41.549Z,8.62
2023-04-15T15:56:12.060Z,8.67
2023-04-15T15:58:43.899Z,8.63
2023-04-15T16:01:14.378Z,8.63
2023-04-15T16:03:44.764Z,8.78
2023-04-15T16:06:17.762Z,8.84
2023-04-15T16:08:47.993Z,9.05
2023-04-15T16:11:18.378Z,9.16
2023-04-15T16:13:48.665Z,9.21
2023-04-15T16:16:18.921Z,9.25
2023-04-15T16:18:49.203Z,8.85
2023-04-15T16:21:23.572Z,8.50
2023-04-15T16:23:53.800Z,8.23
2023-04-15T16:26:24.078Z,8.09
2023-04-15T16:28:54.264Z,7.94
2023-04-15T16:31:24.567Z,7.90
2023-04-15T16:33:54.810Z,7.87
2023-04-15T16:36:27.707Z,7.82
2023-04-15T16:38:57.985Z,7.89
2023-04-15T16:41:28.350Z,7.88
2023-04-15T16:43:59.977Z,7.83
2023-04-15T16:46:30.291Z,7.80
2023-04-15T16:49:01.018Z,7.91
2023-04-15T16:51:34.912Z,7.77
2023-04-15T16:54:05.129Z,7.81
2023-04-15T16:56:35.334Z,7.74
2023-04-15T16:59:05.991Z,7.68
2023-04-15T17:01:36.549Z,7.57
2023-04-15T17:04:07.052Z,7.43
2023-04-15T17:06:39.956Z,7.36
2023-04-15T17:09:10.214Z,7.26
2023-04-15T17:11:40.894Z,7.24
2023-04-15T17:14:11.366Z,7.29
2023-04-15T17:16:42.170Z,7.30
2023-04-15T17:19:12.470Z,7.34
2023-04-15T17:21:45.470Z,7.45
2023-04-15T17:24:15.957Z,7.40
2023-04-15T17:26:47.138Z,7.36
2023-04-15T17:29:17.699Z,7.17
2023-04-15T17:31:47.944Z,7.06
2023-04-15T17:34:18.360Z,7.03
2023-04-15T17:36:51.531Z,7.03
2023-04-15T17:39:21.930Z,6.98
2023-04-15T17:41:52.144Z,6.99
2023-04-15T17:44:24.627Z,6.96
2023-04-15T17:46:55.539Z,6.97
2023-04-15T17:49:26.177Z,6.99
2023-04-15T17:51:59.029Z,6.93
2023-04-15T17:54:29.376Z,6.86
2023-04-15T17:57:00.346Z,6.86
2023-04-15T17:59:30.827Z,6.86
2023-04-15T18:02:01.246Z,6.85
2023-04-15T18:04:31.770Z,6.83
2023-04-15T18:07:04.789Z,6.80
2023-04-15T18:09:35.266Z,6.77
2023-04-15T18:12:07.797Z,6.79
2023-04-15T18:14:38.189Z,6.81
2023-04-15T18:17:08.429Z,6.76
2023-04-15T18:19:38.780Z,6.71
2023-04-15T18:22:11.744Z,6.68
2023-04-15T18:24:41.979Z,6.65
2023-04-15T18:27:12.322Z,6.76
2023-04-15T18:29:43.038Z,6.68
2023-04-15T18:32:13.628Z,6.66
2023-04-15T18:34:45.093Z,6.75
2023-04-15T18:37:18.034Z,6.71
2023-04-15T18:39:48.360Z,6.70
2023-04-15T18:42:18.612Z,6.72
2023-04-15T18:44:48.869Z,6.85
2023-04-15T18:47:19.294Z,6.86
2023-04-15T18:49:49.548Z,6.88
2023-04-15T18:52:22.501Z,6.86
2023-04-15T18:54:52.792Z,6.97
2023-04-15T18:57:31.340Z,6.91
2023-04-15T19:00:03.726Z,6.88
2023-04-15T19:02:34.039Z,6.91
2023-04-15T19:05:04.660Z,7.03
2023-04-15T19:07:38.528Z,6.88
2023-04-15T19:10:09.225Z,6.85
2023-04-15T19:12:40.316Z,6.83
2023-04-15T19:15:11.146Z,6.79
2023-04-15T19:17:41.449Z,6.75
2023-04-15T19:20:12.019Z,6.82
2023-04-15T19:22:44.982Z,6.86
2023-04-15T19:25:15.266Z,6.83
2023-04-15T19:27:45.596Z,6.81
2023-04-15T19:30:16.613Z,6.87
2023-04-15T19:32:46.873Z,6.78
2023-04-15T19:35:17.309Z,6.79
2023-04-15T19:37:50.502Z,6.74
2023-04-15T19:40:20.753Z,6.78
2023-04-15T19:42:50.987Z,6.76
2023-04-15T19:45:21.203Z,6.70
2023-04-15T19:47:51.553Z,6.69
2023-04-15T19:50:26.076Z,6.71
2023-04-15T19:52:58.908Z,6.80
2023-04-15T19:55:29.165Z,6.70
2023-04-15T19:57:59.442Z,6.71
2023-04-15T20:00:29.817Z,6.68
2023-04-15T20:03:00.299Z,6.71
2023-04-15T20:05:30.722Z,6.72
2023-04-15T20:08:03.755Z,6.74
2023-04-15T20:10:35.441Z,6.66
2023-04-15T20:13:05.815Z,6.66
2023-04-15T20:15:36.071Z,6.68
2023-04-15T20:18:06.416Z,6.68
2023-04-15T20:20:37.046Z,6.69
2023-04-15T20:23:09.902Z,6.70
2023-04-15T20:25:40.139Z,6.71
2023-04-15T20:28:10.450Z,6.68
2023-04-15T20:30:41.053Z,6.71
2023-04-15T20:33:11.278Z,6.72
2023-04-15T20:35:41.837Z,6.76
2023-04-15T20:38:16.021Z,6.71
2023-04-15T20:40:46.285Z,6.69
2023-04-15T20:43:16.609Z,6.71
2023-04-15T20:45:46.805Z,6.73
2023-04-15T20:48:17.169Z,6.71
2023-04-15T20:50:47.449Z,6.68
2023-04-15T20:53:20.356Z,6.67
2023-04-15T20:55:50.681Z,6.75
2023-04-15T20:58:20.876Z,6.67
2023-04-15T21:00:53.646Z,6.75
2023-04-15T21:03:25.628Z,6.72
2023-04-15T21:05:56.222Z,6.68
2023-04-15T21:08:29.758Z,6.71
2023-04-15T21:11:00.152Z,6.67
2023-04-15T21:13:30.527Z,6.69
2023-04-15T21:16:00.828Z,6.67
2023-04-15T21:18:31.157Z,6.70
2023-04-15T21:21:01.827Z,6.70
2023-04-15T21:23:36.019Z,6.68
2023-04-15T21:26:06.261Z,6.78
2023-04-15T21:28:37.311Z,6.92
2023-04-15T21:31:07.772Z,7.04
2023-04-15T21:33:38.043Z,6.83
2023-04-15T21:36:08.534Z,6.80
2023-04-15T21:38:41.499Z,6.79
2023-04-15T21:41:12.338Z,6.77
2023-04-15T21:43:42.530Z,6.74
2023-04-15T21:46:21.965Z,6.78
2023-04-15T21:48:55.399Z,6.72
2023-04-15T21:51:25.945Z,6.71
2023-04-15T21:53:58.804Z,6.73
2023-04-15T21:56:29.233Z,6.71
2023-04-15T21:59:00.261Z,6.71
2023-04-15T22:01:30.923Z,6.69
2023-04-15T22:04:01.394Z,6.69
2023-04-15T22:06:31.840Z,6.72
2023-04-15T22:09:04.697Z,6.71
2023-04-15T22:11:34.906Z,6.69
2023-04-15T22:14:05.569Z,6.71
2023-04-15T22:16:35.870Z,6.73
2023-04-15T22:19:06.578Z,6.71
2023-04-15T22:21:37.123Z,6.72
2023-04-15T22:24:34.843Z,6.79
2023-04-15T22:27:02.917Z,6.74
2023-04-15T22:29:33.262Z,6.75
2023-04-15T22:32:03.654Z,6.84
2023-04-15T22:34:33.874Z,6.85
2023-04-15T22:37:04.225Z,6.81
2023-04-15T22:39:37.087Z,6.78
2023-04-15T22:42:07.317Z,6.75
2023-04-15T22:44:37.667Z,6.75
2023-04-15T22:47:07.940Z,6.72
2023-04-15T22:49:38.178Z,6.73
2023-04-15T22:52:10.451Z,6.73
2023-04-15T22:54:45.230Z,6.73
2023-04-15T22:57:15.647Z,6.77
2023-04-15T22:59:45.865Z,6.78
2023-04-15T23:02:16.217Z,6.75
2023-04-15T23:04:46.739Z,6.76
2023-04-15T23:07:17.147Z,6.77
2023-04-15T23:09:50.068Z,6.78
2023-04-15T23:12:20.438Z,6.82
2023-04-15T23:14:50.880Z,6.83
2023-04-15T23:17:21.162Z,6.77
2023-04-15T23:19:51.817Z,6.78
2023-04-15T23:22:22.100Z,6.76
2023-04-15T23:24:55.002Z,6.73
2023-04-15T23:27:25.238Z,6.75
2023-04-15T23:29:55.546Z,6.73
2023-04-15T23:32:26.732Z,6.76
2023-04-15T23:34:57.188Z,6.81
2023-04-15T23:37:27.451Z,6.77
2023-04-15T23:40:00.396Z,6.82
2023-04-15T23:42:30.834Z,6.82
2023-04-15T23:45:01.173Z,6.83
2023-04-15T23:47:31.461Z,6.79
2023-04-15T23:50:01.941Z,6.79
2023-04-15T23:52:32.229Z,6.81
2023-04-15T23:55:05.434Z,6.75
2023-04-15T23:57:35.658Z,6.75
